sensor_id;sensor_type;location;lat;lon;timestamp;P1;durP1;ratioP1;P2;durP2;ratioP2
9974;SDS011;5028;50.974;4.968;2023-04-24T00:00:03;12.20;;;7.90;;
9974;SDS011;5028;50.974;4.968;2023-04-24T00:02:35;10.40;;;7.60;;
9974;SDS011;5028;50.974;4.968;2023-04-24T00:05:07;12.73;;;8.03;;
9974;SDS011;5028;50.974;4.968;2023-04-24T00:07:36;12.53;;;7.93;;
9974;SDS011;5028;50.974;4.968;2023-04-24T00:10:05;11.30;;;7.90;;
9974;SDS011;5028;50.974;4.968;2023-04-24T00:12:36;12.77;;;8.57;;
9974;SDS011;5028;50.974;4.968;2023-04-24T00:15:05;10.33;;;8.10;;
9974;SDS011;5028;50.974;4.968;2023-04-24T00:17:35;10.27;;;8.00;;
9974;SDS011;5028;50.974;4.968;2023-04-24T00:20:04;11.07;;;8.27;;
9974;SDS011;5028;50.974;4.968;2023-04-24T00:22:33;12.57;;;8.67;;
9974;SDS011;5028;50.974;4.968;2023-04-24T00:25:02;12.37;;;8.47;;
9974;SDS011;5028;50.974;4.968;2023-04-24T00:27:32;13.30;;;8.83;;
9974;SDS011;5028;50.974;4.968;2023-04-24T00:30:06;13.40;;;9.03;;
9974;SDS011;5028;50.974;4.968;2023-04-24T00:32:35;14.37;;;9.10;;
9974;SDS011;5028;50.974;4.968;2023-04-24T00:35:04;14.90;;;9.30;;
9974;SDS011;5028;50.974;4.968;2023-04-24T00:37:34;11.97;;;9.47;;
9974;SDS011;5028;50.974;4.968;2023-04-24T00:40:02;13.47;;;9.50;;
9974;SDS011;5028;50.974;4.968;2023-04-24T00:42:32;12.57;;;9.27;;
9974;SDS011;5028;50.974;4.968;2023-04-24T00:45:01;12.70;;;9.57;;
9974;SDS011;5028;50.974;4.968;2023-04-24T00:47:33;14.13;;;9.93;;
9974;SDS011;5028;50.974;4.968;2023-04-24T00:50:02;12.77;;;10.23;;
9974;SDS011;5028;50.974;4.968;2023-04-24T00:52:31;16.23;;;9.97;;
9974;SDS011;5028;50.974;4.968;2023-04-24T00:55:00;14.20;;;9.87;;
9974;SDS011;5028;50.974;4.968;2023-04-24T00:57:29;14.97;;;9.50;;
9974;SDS011;5028;50.974;4.968;2023-04-24T00:59:58;12.27;;;9.67;;
9974;SDS011;5028;50.974;4.968;2023-04-24T01:02:27;13.23;;;9.80;;
9974;SDS011;5028;50.974;4.968;2023-04-24T01:04:57;11.50;;;9.50;;
9974;SDS011;5028;50.974;4.968;2023-04-24T01:07:26;15.53;;;9.53;;
9974;SDS011;5028;50.974;4.968;2023-04-24T01:09:55;12.30;;;9.33;;
9974;SDS011;5028;50.974;4.968;2023-04-24T01:12:26;12.27;;;9.23;;
9974;SDS011;5028;50.974;4.968;2023-04-24T01:14:55;12.03;;;9.00;;
9974;SDS011;5028;50.974;4.968;2023-04-24T01:17:24;14.50;;;9.00;;
9974;SDS011;5028;50.974;4.968;2023-04-24T01:19:53;12.27;;;9.87;;
9974;SDS011;5028;50.974;4.968;2023-04-24T01:22:24;12.43;;;9.60;;
9974;SDS011;5028;50.974;4.968;2023-04-24T01:24:53;12.57;;;9.23;;
9974;SDS011;5028;50.974;4.968;2023-04-24T01:27:22;13.97;;;9.23;;
9974;SDS011;5028;50.974;4.968;2023-04-24T01:29:51;14.47;;;9.97;;
9974;SDS011;5028;50.974;4.968;2023-04-24T01:32:20;13.30;;;9.10;;
9974;SDS011;5028;50.974;4.968;2023-04-24T01:34:48;13.10;;;9.47;;
9974;SDS011;5028;50.974;4.968;2023-04-24T01:37:18;14.97;;;9.97;;
9974;SDS011;5028;50.974;4.968;2023-04-24T01:39:48;11.87;;;8.90;;
9974;SDS011;5028;50.974;4.968;2023-04-24T01:42:17;11.77;;;9.50;;
9974;SDS011;5028;50.974;4.968;2023-04-24T01:44:46;11.00;;;9.13;;
9974;SDS011;5028;50.974;4.968;2023-04-24T01:47:15;14.40;;;9.60;;
9974;SDS011;5028;50.974;4.968;2023-04-24T01:49:44;13.30;;;8.87;;
9974;SDS011;5028;50.974;4.968;2023-04-24T01:52:15;11.03;;;8.87;;
9974;SDS011;5028;50.974;4.968;2023-04-24T01:54:45;15.67;;;9.27;;
9974;SDS011;5028;50.974;4.968;2023-04-24T01:57:15;12.27;;;8.93;;
9974;SDS011;5028;50.974;4.968;2023-04-24T01:59:44;14.63;;;9.27;;
9974;SDS011;5028;50.974;4.968;2023-04-24T02:02:13;13.30;;;8.43;;
9974;SDS011;5028;50.974;4.968;2023-04-24T02:04:42;9.30;;;7.73;;
9974;SDS011;5028;50.974;4.968;2023-04-24T02:07:10;12.00;;;7.50;;
9974;SDS011;5028;50.974;4.968;2023-04-24T02:09:38;11.50;;;7.93;;
9974;SDS011;5028;50.974;4.968;2023-04-24T02:12:08;8.90;;;8.00;;
9974;SDS011;5028;50.974;4.968;2023-04-24T02:14:38;10.87;;;7.40;;
9974;SDS011;5028;50.974;4.968;2023-04-24T02:17:06;8.77;;;7.37;;
9974;SDS011;5028;50.974;4.968;2023-04-24T02:19:35;9.63;;;7.47;;
9974;SDS011;5028;50.974;4.968;2023-04-24T02:22:04;9.90;;;7.57;;
9974;SDS011;5028;50.974;4.968;2023-04-24T02:24:33;10.00;;;7.10;;
9974;SDS011;5028;50.974;4.968;2023-04-24T02:27:02;8.67;;;7.03;;
9974;SDS011;5028;50.974;4.968;2023-04-24T02:29:33;8.17;;;6.90;;
9974;SDS011;5028;50.974;4.968;2023-04-24T02:32:03;13.77;;;8.30;;
9974;SDS011;5028;50.974;4.968;2023-04-24T02:34:31;10.57;;;8.13;;
9974;SDS011;5028;50.974;4.968;2023-04-24T02:37:00;9.93;;;8.30;;
9974;SDS011;5028;50.974;4.968;2023-04-24T02:39:29;10.50;;;7.90;;
9974;SDS011;5028;50.974;4.968;2023-04-24T02:41:57;9.97;;;7.60;;
9974;SDS011;5028;50.974;4.968;2023-04-24T02:44:26;9.03;;;8.07;;
9974;SDS011;5028;50.974;4.968;2023-04-24T02:46:55;8.53;;;7.70;;
9974;SDS011;5028;50.974;4.968;2023-04-24T02:49:25;9.63;;;8.00;;
9974;SDS011;5028;50.974;4.968;2023-04-24T02:51:54;9.63;;;8.63;;
9974;SDS011;5028;50.974;4.968;2023-04-24T02:54:22;8.67;;;7.77;;
9974;SDS011;5028;50.974;4.968;2023-04-24T02:56:51;12.37;;;9.43;;
9974;SDS011;5028;50.974;4.968;2023-04-24T02:59:20;10.67;;;8.80;;
9974;SDS011;5028;50.974;4.968;2023-04-24T03:01:49;11.17;;;9.97;;
9974;SDS011;5028;50.974;4.968;2023-04-24T03:04:17;12.80;;;10.13;;
9974;SDS011;5028;50.974;4.968;2023-04-24T03:06:51;12.83;;;10.73;;
9974;SDS011;5028;50.974;4.968;2023-04-24T03:09:21;13.97;;;10.53;;
9974;SDS011;5028;50.974;4.968;2023-04-24T03:11:49;11.97;;;10.17;;
9974;SDS011;5028;50.974;4.968;2023-04-24T03:14:18;14.03;;;11.03;;
9974;SDS011;5028;50.974;4.968;2023-04-24T03:16:47;14.63;;;10.87;;
9974;SDS011;5028;50.974;4.968;2023-04-24T03:19:15;12.00;;;10.67;;
9974;SDS011;5028;50.974;4.968;2023-04-24T03:21:44;12.80;;;11.23;;
9974;SDS011;5028;50.974;4.968;2023-04-24T03:24:14;12.57;;;10.30;;
9974;SDS011;5028;50.974;4.968;2023-04-24T03:26:43;12.27;;;10.37;;
9974;SDS011;5028;50.974;4.968;2023-04-24T03:29:11;12.90;;;10.27;;
9974;SDS011;5028;50.974;4.968;2023-04-24T03:31:40;11.93;;;10.57;;
9974;SDS011;5028;50.974;4.968;2023-04-24T03:34:09;11.80;;;9.87;;
9974;SDS011;5028;50.974;4.968;2023-04-24T03:36:38;10.70;;;9.70;;
9974;SDS011;5028;50.974;4.968;2023-04-24T03:39:06;12.17;;;9.60;;
9974;SDS011;5028;50.974;4.968;2023-04-24T03:41:39;11.00;;;9.70;;
9974;SDS011;5028;50.974;4.968;2023-04-24T03:44:07;11.80;;;9.93;;
9974;SDS011;5028;50.974;4.968;2023-04-24T03:46:36;11.47;;;9.33;;
9974;SDS011;5028;50.974;4.968;2023-04-24T03:49:05;10.00;;;9.00;;
9974;SDS011;5028;50.974;4.968;2023-04-24T03:51:34;9.63;;;8.63;;
9974;SDS011;5028;50.974;4.968;2023-04-24T03:54:03;10.23;;;9.10;;
9974;SDS011;5028;50.974;4.968;2023-04-24T03:56:32;10.00;;;9.03;;
9974;SDS011;5028;50.974;4.968;2023-04-24T03:59:03;11.53;;;9.37;;
9974;SDS011;5028;50.974;4.968;2023-04-24T04:01:31;12.00;;;8.73;;
9974;SDS011;5028;50.974;4.968;2023-04-24T04:04:03;9.30;;;7.97;;
9974;SDS011;5028;50.974;4.968;2023-04-24T04:06:32;10.53;;;8.80;;
9974;SDS011;5028;50.974;4.968;2023-04-24T04:09:01;10.83;;;8.60;;
9974;SDS011;5028;50.974;4.968;2023-04-24T04:11:29;11.53;;;9.33;;
9974;SDS011;5028;50.974;4.968;2023-04-24T04:14:03;10.60;;;8.80;;
9974;SDS011;5028;50.974;4.968;2023-04-24T04:16:32;12.00;;;9.97;;
9974;SDS011;5028;50.974;4.968;2023-04-24T04:19:03;8.00;;;6.97;;
9974;SDS011;5028;50.974;4.968;2023-04-24T04:21:31;8.50;;;7.10;;
9974;SDS011;5028;50.974;4.968;2023-04-24T04:24:00;10.07;;;7.07;;
9974;SDS011;5028;50.974;4.968;2023-04-24T04:26:29;8.07;;;7.27;;
9974;SDS011;5028;50.974;4.968;2023-04-24T04:28:59;8.00;;;7.23;;
9974;SDS011;5028;50.974;4.968;2023-04-24T04:31:30;8.30;;;7.43;;
9974;SDS011;5028;50.974;4.968;2023-04-24T04:33:58;8.03;;;7.23;;
9974;SDS011;5028;50.974;4.968;2023-04-24T04:36:28;5.67;;;5.17;;
9974;SDS011;5028;50.974;4.968;2023-04-24T04:38:57;5.83;;;5.20;;
9974;SDS011;5028;50.974;4.968;2023-04-24T04:41:26;6.80;;;5.43;;
9974;SDS011;5028;50.974;4.968;2023-04-24T04:43:55;6.70;;;4.90;;
9974;SDS011;5028;50.974;4.968;2023-04-24T04:46:25;5.57;;;5.07;;
9974;SDS011;5028;50.974;4.968;2023-04-24T04:48:55;6.00;;;5.40;;
9974;SDS011;5028;50.974;4.968;2023-04-24T04:51:24;6.70;;;5.47;;
9974;SDS011;5028;50.974;4.968;2023-04-24T04:53:53;6.73;;;6.00;;
9974;SDS011;5028;50.974;4.968;2023-04-24T04:56:22;7.73;;;5.87;;
9974;SDS011;5028;50.974;4.968;2023-04-24T04:58:51;6.30;;;5.10;;
9974;SDS011;5028;50.974;4.968;2023-04-24T05:01:21;5.90;;;5.30;;
9974;SDS011;5028;50.974;4.968;2023-04-24T05:03:51;5.97;;;5.07;;
9974;SDS011;5028;50.974;4.968;2023-04-24T05:06:21;4.93;;;4.43;;
9974;SDS011;5028;50.974;4.968;2023-04-24T05:08:50;5.30;;;4.80;;
9974;SDS011;5028;50.974;4.968;2023-04-24T05:11:23;3.80;;;3.47;;
9974;SDS011;5028;50.974;4.968;2023-04-24T05:13:52;3.43;;;3.13;;
9974;SDS011;5028;50.974;4.968;2023-04-24T05:16:21;3.37;;;3.00;;
9974;SDS011;5028;50.974;4.968;2023-04-24T05:18:50;4.27;;;3.10;;
9974;SDS011;5028;50.974;4.968;2023-04-24T05:21:18;4.23;;;3.53;;
9974;SDS011;5028;50.974;4.968;2023-04-24T05:23:49;6.33;;;4.20;;
9974;SDS011;5028;50.974;4.968;2023-04-24T05:26:17;4.83;;;4.33;;
9974;SDS011;5028;50.974;4.968;2023-04-24T05:28:46;5.80;;;5.13;;
9974;SDS011;5028;50.974;4.968;2023-04-24T05:31:15;6.90;;;5.33;;
9974;SDS011;5028;50.974;4.968;2023-04-24T05:33:44;5.90;;;5.30;;
9974;SDS011;5028;50.974;4.968;2023-04-24T05:36:13;7.70;;;5.30;;
9974;SDS011;5028;50.974;4.968;2023-04-24T05:38:43;6.20;;;5.60;;
9974;SDS011;5028;50.974;4.968;2023-04-24T05:41:12;7.83;;;6.40;;
9974;SDS011;5028;50.974;4.968;2023-04-24T05:43:41;9.57;;;6.73;;
9974;SDS011;5028;50.974;4.968;2023-04-24T05:46:11;9.07;;;7.00;;
9974;SDS011;5028;50.974;4.968;2023-04-24T05:48:40;7.87;;;7.07;;
9974;SDS011;5028;50.974;4.968;2023-04-24T05:51:09;6.50;;;5.90;;
9974;SDS011;5028;50.974;4.968;2023-04-24T05:53:38;8.90;;;7.10;;
9974;SDS011;5028;50.974;4.968;2023-04-24T05:56:09;9.20;;;7.43;;
9974;SDS011;5028;50.974;4.968;2023-04-24T05:58:37;7.70;;;6.80;;
9974;SDS011;5028;50.974;4.968;2023-04-24T06:01:06;9.50;;;6.50;;
9974;SDS011;5028;50.974;4.968;2023-04-24T06:03:34;6.90;;;5.67;;
9974;SDS011;5028;50.974;4.968;2023-04-24T06:06:04;8.40;;;6.70;;
9974;SDS011;5028;50.974;4.968;2023-04-24T06:08:33;9.40;;;6.90;;
9974;SDS011;5028;50.974;4.968;2023-04-24T06:11:02;8.50;;;6.63;;
9974;SDS011;5028;50.974;4.968;2023-04-24T06:13:32;8.63;;;6.70;;
9974;SDS011;5028;50.974;4.968;2023-04-24T06:16:01;8.70;;;6.57;;
9974;SDS011;5028;50.974;4.968;2023-04-24T06:18:29;8.00;;;7.00;;
9974;SDS011;5028;50.974;4.968;2023-04-24T06:20:58;10.30;;;7.60;;
9974;SDS011;5028;50.974;4.968;2023-04-24T06:23:26;9.93;;;6.73;;
9974;SDS011;5028;50.974;4.968;2023-04-24T06:25:55;8.93;;;6.23;;
9974;SDS011;5028;50.974;4.968;2023-04-24T06:28:24;10.87;;;7.57;;
9974;SDS011;5028;50.974;4.968;2023-04-24T06:30:54;11.47;;;8.33;;
9974;SDS011;5028;50.974;4.968;2023-04-24T06:33:23;12.07;;;8.83;;
9974;SDS011;5028;50.974;4.968;2023-04-24T06:35:51;11.97;;;9.00;;
9974;SDS011;5028;50.974;4.968;2023-04-24T06:38:20;12.00;;;8.33;;
9974;SDS011;5028;50.974;4.968;2023-04-24T06:40:49;12.93;;;8.97;;
9974;SDS011;5028;50.974;4.968;2023-04-24T06:43:17;12.23;;;9.70;;
9974;SDS011;5028;50.974;4.968;2023-04-24T06:45:47;11.47;;;8.93;;
9974;SDS011;5028;50.974;4.968;2023-04-24T06:48:17;10.13;;;8.40;;
9974;SDS011;5028;50.974;4.968;2023-04-24T06:50:45;14.40;;;9.30;;
9974;SDS011;5028;50.974;4.968;2023-04-24T06:53:14;10.67;;;8.13;;
9974;SDS011;5028;50.974;4.968;2023-04-24T06:55:43;12.37;;;9.17;;
9974;SDS011;5028;50.974;4.968;2023-04-24T06:58:12;13.33;;;9.43;;
9974;SDS011;5028;50.974;4.968;2023-04-24T07:00:41;12.93;;;9.10;;
9974;SDS011;5028;50.974;4.968;2023-04-24T07:03:10;11.50;;;9.30;;
9974;SDS011;5028;50.974;4.968;2023-04-24T07:05:40;13.00;;;9.47;;
9974;SDS011;5028;50.974;4.968;2023-04-24T07:08:09;12.27;;;9.63;;
9974;SDS011;5028;50.974;4.968;2023-04-24T07:10:39;13.07;;;10.37;;
9974;SDS011;5028;50.974;4.968;2023-04-24T07:13:08;13.93;;;10.47;;
9974;SDS011;5028;50.974;4.968;2023-04-24T07:15:36;15.13;;;10.83;;
9974;SDS011;5028;50.974;4.968;2023-04-24T07:18:06;15.33;;;11.53;;
9974;SDS011;5028;50.974;4.968;2023-04-24T07:20:35;14.57;;;11.13;;
9974;SDS011;5028;50.974;4.968;2023-04-24T07:23:05;16.73;;;11.73;;
9974;SDS011;5028;50.974;4.968;2023-04-24T07:25:34;16.80;;;12.43;;
9974;SDS011;5028;50.974;4.968;2023-04-24T07:28:03;17.83;;;12.97;;
9974;SDS011;5028;50.974;4.968;2023-04-24T07:30:31;15.20;;;12.40;;
9974;SDS011;5028;50.974;4.968;2023-04-24T07:33:00;16.67;;;12.50;;
9974;SDS011;5028;50.974;4.968;2023-04-24T07:35:29;14.67;;;12.07;;
9974;SDS011;5028;50.974;4.968;2023-04-24T07:37:58;15.80;;;12.40;;
9974;SDS011;5028;50.974;4.968;2023-04-24T07:40:28;14.13;;;11.03;;
9974;SDS011;5028;50.974;4.968;2023-04-24T07:42:57;13.17;;;9.33;;
9974;SDS011;5028;50.974;4.968;2023-04-24T07:45:26;11.70;;;9.70;;
9974;SDS011;5028;50.974;4.968;2023-04-24T07:47:55;15.10;;;10.93;;
9974;SDS011;5028;50.974;4.968;2023-04-24T07:50:23;13.23;;;9.93;;
9974;SDS011;5028;50.974;4.968;2023-04-24T07:52:52;10.57;;;8.83;;
9974;SDS011;5028;50.974;4.968;2023-04-24T07:55:21;11.93;;;9.03;;
9974;SDS011;5028;50.974;4.968;2023-04-24T07:57:55;13.90;;;9.47;;
9974;SDS011;5028;50.974;4.968;2023-04-24T08:00:23;12.37;;;8.53;;
9974;SDS011;5028;50.974;4.968;2023-04-24T08:02:52;11.93;;;8.20;;
9974;SDS011;5028;50.974;4.968;2023-04-24T08:05:21;14.07;;;8.13;;
9974;SDS011;5028;50.974;4.968;2023-04-24T08:07:52;13.57;;;7.20;;
9974;SDS011;5028;50.974;4.968;2023-04-24T08:10:20;13.80;;;7.70;;
9974;SDS011;5028;50.974;4.968;2023-04-24T08:12:49;10.50;;;6.70;;
9974;SDS011;5028;50.974;4.968;2023-04-24T08:15:20;9.10;;;6.77;;
9974;SDS011;5028;50.974;4.968;2023-04-24T08:17:49;11.70;;;5.83;;
9974;SDS011;5028;50.974;4.968;2023-04-24T08:20:17;7.90;;;5.70;;
9974;SDS011;5028;50.974;4.968;2023-04-24T08:22:46;7.77;;;5.07;;
9974;SDS011;5028;50.974;4.968;2023-04-24T08:25:15;9.87;;;5.23;;
9974;SDS011;5028;50.974;4.968;2023-04-24T08:27:44;8.23;;;4.73;;
9974;SDS011;5028;50.974;4.968;2023-04-24T08:30:12;10.10;;;4.87;;
9974;SDS011;5028;50.974;4.968;2023-04-24T08:32:43;7.57;;;4.83;;
9974;SDS011;5028;50.974;4.968;2023-04-24T08:35:12;12.10;;;5.60;;
9974;SDS011;5028;50.974;4.968;2023-04-24T08:37:40;9.90;;;5.07;;
9974;SDS011;5028;50.974;4.968;2023-04-24T08:40:12;10.17;;;4.97;;
9974;SDS011;5028;50.974;4.968;2023-04-24T08:42:42;14.63;;;5.33;;
9974;SDS011;5028;50.974;4.968;2023-04-24T08:45:11;10.63;;;4.63;;
9974;SDS011;5028;50.974;4.968;2023-04-24T08:47:41;7.63;;;4.07;;
9974;SDS011;5028;50.974;4.968;2023-04-24T08:50:11;9.83;;;5.37;;
9974;SDS011;5028;50.974;4.968;2023-04-24T08:52:41;7.63;;;4.53;;
9974;SDS011;5028;50.974;4.968;2023-04-24T08:55:10;11.30;;;5.83;;
9974;SDS011;5028;50.974;4.968;2023-04-24T08:57:39;10.73;;;5.17;;
9974;SDS011;5028;50.974;4.968;2023-04-24T09:00:08;13.87;;;5.80;;
9974;SDS011;5028;50.974;4.968;2023-04-24T09:02:39;12.67;;;6.07;;
9974;SDS011;5028;50.974;4.968;2023-04-24T09:05:11;12.57;;;6.43;;
9974;SDS011;5028;50.974;4.968;2023-04-24T09:07:41;14.30;;;7.07;;
9974;SDS011;5028;50.974;4.968;2023-04-24T09:10:12;13.87;;;7.03;;
9974;SDS011;5028;50.974;4.968;2023-04-24T09:12:41;14.60;;;6.10;;
9974;SDS011;5028;50.974;4.968;2023-04-24T09:15:12;15.10;;;7.03;;
9974;SDS011;5028;50.974;4.968;2023-04-24T09:17:43;14.27;;;6.90;;
9974;SDS011;5028;50.974;4.968;2023-04-24T09:20:12;11.63;;;5.60;;
9974;SDS011;5028;50.974;4.968;2023-04-24T09:22:41;12.30;;;6.27;;
9974;SDS011;5028;50.974;4.968;2023-04-24T09:25:10;15.00;;;6.23;;
9974;SDS011;5028;50.974;4.968;2023-04-24T09:27:43;8.87;;;5.53;;
9974;SDS011;5028;50.974;4.968;2023-04-24T09:30:16;12.67;;;6.77;;
9974;SDS011;5028;50.974;4.968;2023-04-24T09:32:51;14.33;;;6.63;;
9974;SDS011;5028;50.974;4.968;2023-04-24T09:35:40;13.33;;;6.57;;
9974;SDS011;5028;50.974;4.968;2023-04-24T09:38:09;10.43;;;6.27;;
9974;SDS011;5028;50.974;4.968;2023-04-24T09:40:38;11.17;;;5.77;;
9974;SDS011;5028;50.974;4.968;2023-04-24T09:43:10;8.37;;;5.27;;
9974;SDS011;5028;50.974;4.968;2023-04-24T09:45:39;10.27;;;5.03;;
9974;SDS011;5028;50.974;4.968;2023-04-24T09:48:10;11.07;;;5.43;;
9974;SDS011;5028;50.974;4.968;2023-04-24T09:50:38;17.07;;;5.30;;
9974;SDS011;5028;50.974;4.968;2023-04-24T09:53:07;12.07;;;5.67;;
9974;SDS011;5028;50.974;4.968;2023-04-24T09:55:38;14.47;;;7.00;;
9974;SDS011;5028;50.974;4.968;2023-04-24T09:58:08;9.47;;;5.83;;
9974;SDS011;5028;50.974;4.968;2023-04-24T10:00:37;12.00;;;5.97;;
9974;SDS011;5028;50.974;4.968;2023-04-24T10:03:06;12.07;;;6.27;;
9974;SDS011;5028;50.974;4.968;2023-04-24T10:05:39;11.63;;;6.10;;
9974;SDS011;5028;50.974;4.968;2023-04-24T10:08:10;10.17;;;6.47;;
9974;SDS011;5028;50.974;4.968;2023-04-24T10:10:42;14.73;;;6.27;;
9974;SDS011;5028;50.974;4.968;2023-04-24T10:13:14;11.67;;;5.63;;
9974;SDS011;5028;50.974;4.968;2023-04-24T10:15:44;10.53;;;5.70;;
9974;SDS011;5028;50.974;4.968;2023-04-24T10:18:15;13.50;;;5.93;;
9974;SDS011;5028;50.974;4.968;2023-04-24T10:20:47;8.20;;;4.77;;
9974;SDS011;5028;50.974;4.968;2023-04-24T10:23:16;8.10;;;4.10;;
9974;SDS011;5028;50.974;4.968;2023-04-24T10:25:46;9.63;;;4.70;;
9974;SDS011;5028;50.974;4.968;2023-04-24T10:28:15;6.93;;;4.07;;
9974;SDS011;5028;50.974;4.968;2023-04-24T10:30:44;9.87;;;4.43;;
9974;SDS011;5028;50.974;4.968;2023-04-24T10:33:14;5.50;;;3.30;;
9974;SDS011;5028;50.974;4.968;2023-04-24T10:35:45;8.90;;;3.90;;
9974;SDS011;5028;50.974;4.968;2023-04-24T10:38:21;6.77;;;3.57;;
9974;SDS011;5028;50.974;4.968;2023-04-24T10:40:57;9.77;;;3.90;;
9974;SDS011;5028;50.974;4.968;2023-04-24T10:43:34;8.73;;;3.43;;
9974;SDS011;5028;50.974;4.968;2023-04-24T10:46:04;8.83;;;4.03;;
9974;SDS011;5028;50.974;4.968;2023-04-24T10:48:34;7.10;;;3.30;;
9974;SDS011;5028;50.974;4.968;2023-04-24T10:51:05;5.80;;;2.97;;
9974;SDS011;5028;50.974;4.968;2023-04-24T10:53:39;5.23;;;2.90;;
9974;SDS011;5028;50.974;4.968;2023-04-24T10:56:08;6.63;;;3.13;;
9974;SDS011;5028;50.974;4.968;2023-04-24T10:58:39;5.80;;;3.17;;
9974;SDS011;5028;50.974;4.968;2023-04-24T11:01:22;7.07;;;3.10;;
9974;SDS011;5028;50.974;4.968;2023-04-24T11:03:54;7.37;;;3.07;;
9974;SDS011;5028;50.974;4.968;2023-04-24T11:06:32;7.47;;;3.80;;
9974;SDS011;5028;50.974;4.968;2023-04-24T11:09:03;8.13;;;3.40;;
9974;SDS011;5028;50.974;4.968;2023-04-24T11:11:33;4.77;;;3.47;;
9974;SDS011;5028;50.974;4.968;2023-04-24T11:14:04;5.30;;;3.33;;
9974;SDS011;5028;50.974;4.968;2023-04-24T11:16:39;6.10;;;3.40;;
9974;SDS011;5028;50.974;4.968;2023-04-24T11:19:20;7.63;;;3.53;;
9974;SDS011;5028;50.974;4.968;2023-04-24T11:21:56;7.13;;;3.90;;
9974;SDS011;5028;50.974;4.968;2023-04-24T11:24:32;6.30;;;3.40;;
9974;SDS011;5028;50.974;4.968;2023-04-24T11:27:11;5.80;;;3.13;;
9974;SDS011;5028;50.974;4.968;2023-04-24T11:29:43;8.70;;;3.87;;
9974;SDS011;5028;50.974;4.968;2023-04-24T11:32:23;6.70;;;3.70;;
9974;SDS011;5028;50.974;4.968;2023-04-24T11:34:54;7.33;;;3.40;;
9974;SDS011;5028;50.974;4.968;2023-04-24T11:37:26;5.77;;;2.97;;
9974;SDS011;5028;50.974;4.968;2023-04-24T11:39:56;6.23;;;3.00;;
9974;SDS011;5028;50.974;4.968;2023-04-24T11:42:27;5.33;;;2.50;;
9974;SDS011;5028;50.974;4.968;2023-04-24T11:44:58;4.57;;;2.30;;
9974;SDS011;5028;50.974;4.968;2023-04-24T11:47:29;3.47;;;2.30;;
9974;SDS011;5028;50.974;4.968;2023-04-24T11:50:00;4.40;;;2.27;;
9974;SDS011;5028;50.974;4.968;2023-04-24T11:52:32;3.87;;;2.40;;
9974;SDS011;5028;50.974;4.968;2023-04-24T11:55:05;4.40;;;2.40;;
9974;SDS011;5028;50.974;4.968;2023-04-24T11:57:35;5.53;;;2.50;;
9974;SDS011;5028;50.974;4.968;2023-04-24T12:00:04;4.67;;;2.70;;
9974;SDS011;5028;50.974;4.968;2023-04-24T12:02:35;3.03;;;2.07;;
9974;SDS011;5028;50.974;4.968;2023-04-24T12:05:05;4.93;;;2.60;;
9974;SDS011;5028;50.974;4.968;2023-04-24T12:07:41;7.07;;;3.27;;
9974;SDS011;5028;50.974;4.968;2023-04-24T12:10:10;4.83;;;2.50;;
9974;SDS011;5028;50.974;4.968;2023-04-24T12:12:41;5.80;;;2.90;;
9974;SDS011;5028;50.974;4.968;2023-04-24T12:15:11;5.07;;;2.80;;
9974;SDS011;5028;50.974;4.968;2023-04-24T12:17:41;6.50;;;3.20;;
9974;SDS011;5028;50.974;4.968;2023-04-24T12:20:10;6.10;;;3.43;;
9974;SDS011;5028;50.974;4.968;2023-04-24T12:22:46;6.50;;;3.33;;
9974;SDS011;5028;50.974;4.968;2023-04-24T12:25:16;5.90;;;2.83;;
9974;SDS011;5028;50.974;4.968;2023-04-24T12:27:51;5.13;;;3.20;;
9974;SDS011;5028;50.974;4.968;2023-04-24T12:30:22;5.93;;;3.50;;
9974;SDS011;5028;50.974;4.968;2023-04-24T12:32:57;5.60;;;2.90;;
9974;SDS011;5028;50.974;4.968;2023-04-24T12:35:27;5.23;;;3.10;;
9974;SDS011;5028;50.974;4.968;2023-04-24T12:38:06;4.00;;;2.60;;
9974;SDS011;5028;50.974;4.968;2023-04-24T12:40:36;6.37;;;3.17;;
9974;SDS011;5028;50.974;4.968;2023-04-24T12:43:12;6.33;;;3.23;;
9974;SDS011;5028;50.974;4.968;2023-04-24T12:45:42;11.03;;;7.07;;
9974;SDS011;5028;50.974;4.968;2023-04-24T12:48:11;9.37;;;6.27;;
9974;SDS011;5028;50.974;4.968;2023-04-24T12:50:40;6.33;;;3.40;;
9974;SDS011;5028;50.974;4.968;2023-04-24T12:53:14;4.60;;;2.87;;
9974;SDS011;5028;50.974;4.968;2023-04-24T12:55:43;5.30;;;3.30;;
9974;SDS011;5028;50.974;4.968;2023-04-24T12:58:13;5.13;;;3.77;;
9974;SDS011;5028;50.974;4.968;2023-04-24T13:00:41;5.33;;;3.33;;
9974;SDS011;5028;50.974;4.968;2023-04-24T13:03:12;5.57;;;3.37;;
9974;SDS011;5028;50.974;4.968;2023-04-24T13:05:41;5.17;;;3.07;;
9974;SDS011;5028;50.974;4.968;2023-04-24T13:08:15;5.87;;;3.30;;
9974;SDS011;5028;50.974;4.968;2023-04-24T13:10:43;6.23;;;3.87;;
9974;SDS011;5028;50.974;4.968;2023-04-24T13:13:11;4.67;;;3.30;;
9974;SDS011;5028;50.974;4.968;2023-04-24T13:15:40;5.43;;;3.63;;
9974;SDS011;5028;50.974;4.968;2023-04-24T13:18:09;5.60;;;2.87;;
9974;SDS011;5028;50.974;4.968;2023-04-24T13:20:39;5.27;;;3.10;;
9974;SDS011;5028;50.974;4.968;2023-04-24T13:23:08;5.60;;;3.30;;
9974;SDS011;5028;50.974;4.968;2023-04-24T13:25:38;5.40;;;2.90;;
9974;SDS011;5028;50.974;4.968;2023-04-24T13:28:06;6.67;;;2.53;;
9974;SDS011;5028;50.974;4.968;2023-04-24T13:30:35;5.37;;;2.87;;
9974;SDS011;5028;50.974;4.968;2023-04-24T13:33:05;4.83;;;2.83;;
9974;SDS011;5028;50.974;4.968;2023-04-24T13:35:33;3.80;;;2.37;;
9974;SDS011;5028;50.974;4.968;2023-04-24T13:38:02;3.87;;;2.50;;
9974;SDS011;5028;50.974;4.968;2023-04-24T13:40:32;4.53;;;2.70;;
9974;SDS011;5028;50.974;4.968;2023-04-24T13:43:03;3.27;;;2.27;;
9974;SDS011;5028;50.974;4.968;2023-04-24T13:45:31;5.57;;;2.70;;
9974;SDS011;5028;50.974;4.968;2023-04-24T13:48:00;5.37;;;2.70;;
9974;SDS011;5028;50.974;4.968;2023-04-24T13:50:29;4.27;;;2.30;;
9974;SDS011;5028;50.974;4.968;2023-04-24T13:52:58;7.20;;;2.63;;
9974;SDS011;5028;50.974;4.968;2023-04-24T13:55:28;4.17;;;2.57;;
9974;SDS011;5028;50.974;4.968;2023-04-24T13:57:57;4.70;;;2.93;;
9974;SDS011;5028;50.974;4.968;2023-04-24T14:00:27;5.13;;;2.97;;
9974;SDS011;5028;50.974;4.968;2023-04-24T14:02:56;3.93;;;2.33;;
9974;SDS011;5028;50.974;4.968;2023-04-24T14:05:25;5.50;;;3.00;;
9974;SDS011;5028;50.974;4.968;2023-04-24T14:07:53;4.37;;;2.80;;
9974;SDS011;5028;50.974;4.968;2023-04-24T14:10:22;5.03;;;2.53;;
9974;SDS011;5028;50.974;4.968;2023-04-24T14:12:51;6.00;;;3.07;;
9974;SDS011;5028;50.974;4.968;2023-04-24T14:15:20;4.50;;;2.30;;
9974;SDS011;5028;50.974;4.968;2023-04-24T14:17:51;4.17;;;2.57;;
9974;SDS011;5028;50.974;4.968;2023-04-24T14:20:20;3.83;;;2.40;;
9974;SDS011;5028;50.974;4.968;2023-04-24T14:22:49;3.63;;;2.23;;
9974;SDS011;5028;50.974;4.968;2023-04-24T14:25:19;5.07;;;1.77;;
9974;SDS011;5028;50.974;4.968;2023-04-24T14:27:51;3.50;;;1.90;;
9974;SDS011;5028;50.974;4.968;2023-04-24T14:30:20;4.87;;;2.10;;
9974;SDS011;5028;50.974;4.968;2023-04-24T14:32:50;4.13;;;2.50;;
9974;SDS011;5028;50.974;4.968;2023-04-24T14:35:19;4.13;;;1.90;;
9974;SDS011;5028;50.974;4.968;2023-04-24T14:37:48;3.10;;;1.80;;
9974;SDS011;5028;50.974;4.968;2023-04-24T14:40:17;3.27;;;1.83;;
9974;SDS011;5028;50.974;4.968;2023-04-24T14:43:05;2.57;;;1.70;;
9974;SDS011;5028;50.974;4.968;2023-04-24T14:45:34;3.60;;;2.10;;
9974;SDS011;5028;50.974;4.968;2023-04-24T14:48:06;4.43;;;2.03;;
9974;SDS011;5028;50.974;4.968;2023-04-24T14:50:35;3.33;;;1.70;;
9974;SDS011;5028;50.974;4.968;2023-04-24T14:53:03;3.73;;;2.13;;
9974;SDS011;5028;50.974;4.968;2023-04-24T14:55:32;3.10;;;1.93;;
9974;SDS011;5028;50.974;4.968;2023-04-24T14:58:03;4.77;;;2.00;;
9974;SDS011;5028;50.974;4.968;2023-04-24T15:00:32;3.10;;;1.97;;
9974;SDS011;5028;50.974;4.968;2023-04-24T15:03:00;1.83;;;1.50;;
9974;SDS011;5028;50.974;4.968;2023-04-24T15:05:31;2.67;;;1.80;;
9974;SDS011;5028;50.974;4.968;2023-04-24T15:08:00;2.70;;;1.87;;
9974;SDS011;5028;50.974;4.968;2023-04-24T15:10:31;5.30;;;2.10;;
9974;SDS011;5028;50.974;4.968;2023-04-24T15:13:01;4.03;;;2.00;;
9974;SDS011;5028;50.974;4.968;2023-04-24T15:15:30;2.00;;;1.67;;
9974;SDS011;5028;50.974;4.968;2023-04-24T15:17:58;3.37;;;1.90;;
9974;SDS011;5028;50.974;4.968;2023-04-24T15:20:27;2.10;;;1.70;;
9974;SDS011;5028;50.974;4.968;2023-04-24T15:22:57;3.70;;;1.70;;